createdAt,value
2023-07-24T00:00:03.419Z,98005.75
2023-07-24T00:02:30.242Z,98001.59
2023-07-24T00:04:56.874Z,97996.81
2023-07-24T00:07:24.428Z,97994.50
2023-07-24T00:09:51.097Z,97992.16
2023-07-24T00:12:17.779Z,98000.38
2023-07-24T00:14:44.458Z,97990.41
2023-07-24T00:17:11.172Z,97990.94
2023-07-24T00:19:40.035Z,97981.50
2023-07-24T00:22:06.840Z,97980.50
2023-07-24T00:24:33.714Z,97982.84
2023-07-24T00:27:00.452Z,97985.66
2023-07-24T00:29:27.208Z,97982.47
2023-07-24T00:31:53.907Z,97983.16
2023-07-24T00:34:20.545Z,97981.50
2023-07-24T00:36:47.221Z,97979.81
2023-07-24T00:39:15.980Z,97980.59
2023-07-24T00:41:43.297Z,97975.16
2023-07-24T00:44:10.051Z,97968.78
2023-07-24T00:46:37.144Z,97969.63
2023-07-24T00:49:05.790Z,97978.16
2023-07-24T00:51:34.009Z,97967.59
2023-07-24T00:54:03.361Z,97961.31
2023-07-24T00:56:32.778Z,97955.81
2023-07-24T00:59:00.753Z,97961.00
2023-07-24T01:01:27.986Z,97960.63
2023-07-24T01:03:55.280Z,97956.44
2023-07-24T01:06:22.189Z,97957.28
2023-07-24T01:08:48.785Z,97957.59
2023-07-24T01:11:37.296Z,97958.28
2023-07-24T01:14:28.030Z,97969.25
2023-07-24T01:16:56.823Z,97980.97
2023-07-24T01:20:05.229Z,97965.41
2023-07-24T01:22:31.931Z,97965.41
2023-07-24T01:25:28.150Z,97956.50
2023-07-24T01:27:54.799Z,97960.25
2023-07-24T01:30:22.175Z,97958.44
2023-07-24T01:32:49.566Z,97951.22
2023-07-24T01:35:16.556Z,97959.72
2023-07-24T01:37:44.603Z,97963.31
2023-07-24T01:40:12.844Z,97961.81
2023-07-24T01:42:39.959Z,97963.22
2023-07-24T01:45:07.253Z,97966.00
2023-07-24T01:47:34.244Z,97965.19
2023-07-24T01:50:01.008Z,97959.63
2023-07-24T01:52:27.759Z,97959.91
2023-07-24T01:54:54.444Z,97966.59
2023-07-24T01:57:21.167Z,97958.84
2023-07-24T01:59:47.934Z,97964.41
2023-07-24T02:02:14.656Z,97961.06
2023-07-24T02:04:41.358Z,97962.31
2023-07-24T02:07:07.997Z,97955.09
2023-07-24T02:09:34.637Z,97949.97
2023-07-24T02:12:03.050Z,97955.25
2023-07-24T02:14:29.690Z,97955.41
2023-07-24T02:16:56.354Z,97955.84
2023-07-24T02:19:22.961Z,97950.00
2023-07-24T02:21:49.600Z,97959.59
2023-07-24T02:24:16.289Z,97955.28
2023-07-24T02:26:42.974Z,97958.06
2023-07-24T02:29:09.618Z,97949.63
2023-07-24T02:31:36.325Z,97956.16
2023-07-24T02:34:02.990Z,97957.28
2023-07-24T02:36:30.018Z,97951.31
2023-07-24T02:38:56.865Z,97932.97
2023-07-24T02:41:23.528Z,97935.63
2023-07-24T02:43:50.167Z,97929.50
2023-07-24T02:46:16.815Z,97949.09
2023-07-24T02:48:43.499Z,97948.41
2023-07-24T02:51:10.076Z,97948.13
2023-07-24T02:53:36.693Z,97942.28
2023-07-24T02:56:03.759Z,97943.56
2023-07-24T02:58:30.572Z,97942.03
2023-07-24T03:01:07.923Z,97946.63
2023-07-24T03:03:35.406Z,97948.59
2023-07-24T03:06:02.648Z,97950.38
2023-07-24T03:08:29.258Z,97957.44
2023-07-24T03:10:55.937Z,97956.72
2023-07-24T03:13:22.632Z,97958.97
2023-07-24T03:15:57.704Z,97973.81
2023-07-24T03:18:24.576Z,97967.84
2023-07-24T03:20:51.478Z,97962.28
2023-07-24T03:23:18.201Z,97959.78
2023-07-24T03:25:44.910Z,97956.72
2023-07-24T03:28:11.539Z,97957.00
2023-07-24T03:30:38.219Z,97959.94
2023-07-24T03:33:05.192Z,97961.19
2023-07-24T03:35:31.863Z,97955.25
2023-07-24T03:37:58.591Z,97957.88
2023-07-24T03:40:25.184Z,97957.88
2023-07-24T03:42:51.795Z,97956.06
2023-07-24T03:45:18.500Z,97960.09
2023-07-24T03:47:45.137Z,97966.19
2023-07-24T03:50:11.916Z,97961.19
2023-07-24T03:52:38.625Z,97964.69
2023-07-24T03:55:05.767Z,97959.00
2023-07-24T03:57:32.413Z,97966.91
2023-07-24T03:59:59.183Z,97968.69
2023-07-24T04:02:25.829Z,97967.03
2023-07-24T04:04:52.483Z,97956.22
2023-07-24T04:07:19.214Z,97959.69
2023-07-24T04:09:45.835Z,97962.63
2023-07-24T04:12:12.498Z,97959.00
2023-07-24T04:14:39.344Z,97961.50
2023-07-24T04:17:06.303Z,97962.03
2023-07-24T04:19:34.023Z,97960.66
2023-07-24T04:22:00.760Z,97951.66
2023-07-24T04:24:27.395Z,97953.16
2023-07-24T04:26:54.037Z,97961.75
2023-07-24T04:29:24.825Z,97954.69
2023-07-24T04:31:51.840Z,97965.09
2023-07-24T04:34:18.577Z,97966.34
2023-07-24T04:36:45.254Z,97968.00
2023-07-24T04:39:11.979Z,97964.41
2023-07-24T04:41:38.559Z,97974.50
2023-07-24T04:44:05.218Z,97975.91
2023-07-24T04:46:32.340Z,97981.19
2023-07-24T04:48:59.227Z,97982.84
2023-07-24T04:51:25.962Z,97986.75
2023-07-24T04:53:52.616Z,97983.97
2023-07-24T04:56:19.249Z,97978.41
2023-07-24T04:58:45.882Z,97979.38
2023-07-24T05:01:12.523Z,97975.75
2023-07-24T05:03:39.671Z,97973.69
2023-07-24T05:06:06.324Z,97970.06
2023-07-24T05:08:33.084Z,97967.28
2023-07-24T05:11:00.361Z,97969.25
2023-07-24T05:13:27.910Z,97975.88
2023-07-24T05:15:54.597Z,97979.44
2023-07-24T05:18:21.445Z,97967.16
2023-07-24T05:20:49.806Z,97971.25
2023-07-24T05:23:16.497Z,97977.47
2023-07-24T05:25:43.305Z,97979.19
2023-07-24T05:28:10.881Z,97973.31
2023-07-24T05:30:37.974Z,97980.91
2023-07-24T05:33:04.777Z,97972.88
2023-07-24T05:35:31.537Z,97973.72
2023-07-24T05:37:58.227Z,97972.63
2023-07-24T05:40:25.008Z,97971.81
2023-07-24T05:42:51.731Z,97973.22
2023-07-24T05:45:18.469Z,97974.19
2023-07-24T05:47:45.201Z,97969.94
2023-07-24T05:50:14.444Z,97959.88
2023-07-24T05:52:41.789Z,97958.91
2023-07-24T05:55:09.225Z,97966.16
2023-07-24T05:57:36.167Z,97955.84
2023-07-24T06:00:06.090Z,97957.41
2023-07-24T06:02:33.171Z,97957.66
2023-07-24T06:04:59.902Z,97950.31
2023-07-24T06:07:26.588Z,97959.88
2023-07-24T06:09:53.205Z,97950.66
2023-07-24T06:12:19.854Z,97961.63
2023-07-24T06:14:46.543Z,97958.91
2023-07-24T06:17:13.181Z,97962.63
2023-07-24T06:19:39.846Z,97972.75
2023-07-24T06:22:06.456Z,97967.91
2023-07-24T06:24:33.163Z,97963.31
2023-07-24T06:26:59.913Z,97952.78
2023-07-24T06:29:27.020Z,97965.72
2023-07-24T06:31:53.700Z,97949.50
2023-07-24T06:34:20.396Z,97948.25
2023-07-24T06:36:47.127Z,97944.66
2023-07-24T06:39:13.726Z,97937.97
2023-07-24T06:41:40.386Z,97935.63
2023-07-24T06:44:06.975Z,97935.03
2023-07-24T06:46:33.684Z,97937.38
2023-07-24T06:49:00.338Z,97934.81
2023-07-24T06:51:27.090Z,97930.16
2023-07-24T06:53:53.725Z,97922.31
2023-07-24T06:56:20.500Z,97915.44
2023-07-24T06:58:47.080Z,97915.97
2023-07-24T07:01:13.749Z,97917.72
2023-07-24T07:03:40.527Z,97911.88
2023-07-24T07:06:07.899Z,97912.34
2023-07-24T07:08:34.647Z,97923.28
2023-07-24T07:11:02.312Z,97912.66
2023-07-24T07:13:29.288Z,97905.09
2023-07-24T07:15:58.493Z,97903.25
2023-07-24T07:18:25.216Z,97908.03
2023-07-24T07:20:53.858Z,97909.31
2023-07-24T07:23:21.280Z,97904.59
2023-07-24T07:25:48.022Z,97901.28
2023-07-24T07:28:15.972Z,97898.03
2023-07-24T07:30:45.776Z,97898.44
2023-07-24T07:33:13.109Z,97904.19
2023-07-24T07:35:39.746Z,97906.66
2023-07-24T07:38:06.428Z,97903.34
2023-07-24T07:40:33.120Z,97907.31
2023-07-24T07:42:59.786Z,97900.06
2023-07-24T07:45:26.764Z,97903.75
2023-07-24T07:47:54.586Z,97900.03
2023-07-24T07:50:21.443Z,97908.25
2023-07-24T07:52:51.960Z,97900.63
2023-07-24T07:55:19.963Z,97905.97
2023-07-24T07:57:46.597Z,97897.31
2023-07-24T08:00:13.586Z,97895.84
2023-07-24T08:02:43.323Z,97899.53
2023-07-24T08:05:17.109Z,97902.41
2023-07-24T08:07:47.728Z,97899.50
2023-07-24T08:10:16.900Z,97896.59
2023-07-24T08:12:45.081Z,97886.22
2023-07-24T08:15:12.677Z,97875.06
2023-07-24T08:17:39.594Z,97868.25
2023-07-24T08:20:07.073Z,97875.84
2023-07-24T08:22:34.185Z,97866.75
2023-07-24T08:25:00.898Z,97861.81
2023-07-24T08:27:27.638Z,97864.25
2023-07-24T08:29:54.467Z,97865.97
2023-07-24T08:32:21.736Z,97867.16
2023-07-24T08:34:48.487Z,97869.22
2023-07-24T08:37:15.144Z,97874.19
2023-07-24T08:39:42.700Z,97873.78
2023-07-24T08:42:13.374Z,97868.44
2023-07-24T08:44:40.288Z,97873.78
2023-07-24T08:47:11.513Z,97868.06
2023-07-24T08:49:41.237Z,97858.81
2023-07-24T08:52:10.645Z,97860.72
2023-07-24T08:54:40.210Z,97845.69
2023-07-24T08:57:09.922Z,97845.06
2023-07-24T08:59:36.678Z,97843.03
2023-07-24T09:02:03.484Z,97841.03
2023-07-24T09:04:30.451Z,97841.03
2023-07-24T09:06:59.197Z,97835.66
2023-07-24T09:09:31.542Z,97824.97
2023-07-24T09:12:00.336Z,97822.50
2023-07-24T09:14:33.328Z,97820.47
2023-07-24T09:17:07.986Z,97823.81
2023-07-24T09:19:36.444Z,97826.31
2023-07-24T09:22:15.058Z,97831.06
2023-07-24T09:24:58.441Z,97813.16
2023-07-24T09:27:33.163Z,97803.69
2023-07-24T09:30:01.141Z,97795.84
2023-07-24T09:32:29.047Z,97796.91
2023-07-24T09:34:56.063Z,97794.22
2023-07-24T09:37:27.365Z,97783.94
2023-07-24T09:39:54.389Z,97767.88
2023-07-24T09:42:32.696Z,97768.06
2023-07-24T09:45:00.173Z,97763.97
2023-07-24T09:47:51.067Z,97764.38
2023-07-24T09:50:14.356Z,97755.16
2023-07-24T09:52:43.276Z,97743.22
2023-07-24T09:55:16.152Z,97739.50
2023-07-24T09:57:45.106Z,97731.06
2023-07-24T10:00:13.810Z,97737.63
2023-07-24T10:02:41.829Z,97735.38
2023-07-24T10:05:08.674Z,97734.56
2023-07-24T10:07:35.648Z,97721.19
2023-07-24T10:10:03.173Z,97714.81
2023-07-24T10:12:31.785Z,97706.34
2023-07-24T10:14:59.030Z,97701.19
2023-07-24T10:17:38.337Z,97705.97
2023-07-24T10:20:06.944Z,97709.22
2023-07-24T10:22:34.280Z,97692.16
2023-07-24T10:25:01.170Z,97692.75
2023-07-24T10:27:29.417Z,97679.97
2023-07-24T10:30:14.810Z,97685.13
2023-07-24T10:32:54.183Z,97676.50
2023-07-24T10:35:24.048Z,97683.72
2023-07-24T10:38:00.702Z,97673.69
2023-07-24T10:40:27.434Z,97665.84
2023-07-24T10:43:21.749Z,97657.63
2023-07-24T10:45:50.096Z,97662.16
2023-07-24T10:48:18.406Z,97658.84
2023-07-24T10:50:49.177Z,97658.88
2023-07-24T10:53:21.287Z,97654.81
2023-07-24T10:55:48.817Z,97641.59
2023-07-24T10:58:15.739Z,97645.53
2023-07-24T11:00:46.446Z,97645.50
2023-07-24T11:03:14.599Z,97642.03
2023-07-24T11:05:46.136Z,97634.63
2023-07-24T11:08:16.867Z,97629.28
2023-07-24T11:10:50.490Z,97630.13
2023-07-24T11:13:18.949Z,97622.31
2023-07-24T11:15:46.347Z,97615.72
2023-07-24T11:18:14.241Z,97611.19
2023-07-24T11:20:45.469Z,97603.97
2023-07-24T11:23:12.471Z,97605.84
2023-07-24T11:25:39.952Z,97600.06
2023-07-24T11:28:12.005Z,97591.84
2023-07-24T11:30:39.064Z,97585.44
2023-07-24T11:33:19.321Z,97582.75
2023-07-24T11:35:46.902Z,97581.97
2023-07-24T11:38:14.870Z,97571.69
2023-07-24T11:40:44.925Z,97566.94
2023-07-24T11:43:22.436Z,97557.91
2023-07-24T11:45:53.071Z,97557.47
2023-07-24T11:48:20.631Z,97552.56
2023-07-24T11:50:55.726Z,97558.47
2023-07-24T11:53:27.217Z,97550.69
2023-07-24T11:55:57.374Z,97543.47
2023-07-24T11:58:27.222Z,97550.28
2023-07-24T12:00:54.808Z,97537.91
2023-07-24T12:03:29.657Z,97536.06
2023-07-24T12:05:57.024Z,97526.81
2023-07-24T12:08:37.326Z,97535.44
2023-07-24T12:11:16.811Z,97526.59
2023-07-24T12:13:43.479Z,97524.97
2023-07-24T12:16:10.122Z,97515.31
2023-07-24T12:18:36.833Z,97515.09
2023-07-24T12:21:03.596Z,97516.53
2023-07-24T12:23:30.335Z,97508.72
2023-07-24T12:25:56.974Z,97513.00
2023-07-24T12:28:23.606Z,97504.84
2023-07-24T12:30:50.365Z,97507.50
2023-07-24T12:33:17.829Z,97495.16
2023-07-24T12:35:44.496Z,97508.75
2023-07-24T12:38:11.267Z,97501.56
2023-07-24T12:40:37.889Z,97492.06
2023-07-24T12:43:04.568Z,97480.34
2023-07-24T12:45:31.282Z,97478.72
2023-07-24T12:47:58.060Z,97472.94
2023-07-24T12:50:25.784Z,97468.41
2023-07-24T12:52:52.575Z,97478.09
2023-07-24T12:55:19.677Z,97473.16
2023-07-24T12:57:46.257Z,97470.06
2023-07-24T13:00:13.206Z,97465.75
2023-07-24T13:02:40.125Z,97458.13
2023-07-24T13:05:07.008Z,97449.88
2023-07-24T13:07:33.935Z,97445.13
2023-07-24T13:10:00.709Z,97428.25
2023-07-24T13:12:27.428Z,97432.19
2023-07-24T13:14:54.082Z,97421.72
2023-07-24T13:17:20.765Z,97427.44
2023-07-24T13:19:47.550Z,97412.81
2023-07-24T13:22:14.240Z,97406.66
2023-07-24T13:24:41.049Z,97399.66
2023-07-24T13:27:07.822Z,97396.16
2023-07-24T13:29:34.452Z,97398.84
2023-07-24T13:32:01.136Z,97388.19
2023-07-24T13:34:27.825Z,97391.03
2023-07-24T13:36:54.515Z,97389.63
2023-07-24T13:39:21.489Z,97386.94
2023-07-24T13:41:48.171Z,97384.06
2023-07-24T13:44:14.910Z,97382.16
2023-07-24T13:46:41.631Z,97361.38
2023-07-24T13:49:08.665Z,97361.38
2023-07-24T13:51:35.491Z,97355.59
2023-07-24T13:54:03.480Z,97352.50
2023-07-24T13:56:34.706Z,97348.34
2023-07-24T13:59:01.873Z,97333.50
2023-07-24T14:01:28.622Z,97333.28
2023-07-24T14:03:55.638Z,97330.38
2023-07-24T14:06:22.359Z,97324.00
2023-07-24T14:08:49.023Z,97321.16
2023-07-24T14:11:15.686Z,97314.34
2023-07-24T14:13:42.291Z,97301.78
2023-07-24T14:16:08.984Z,97294.56
2023-07-24T14:18:35.671Z,97292.72
2023-07-24T14:21:02.372Z,97287.13
2023-07-24T14:23:29.111Z,97276.88
2023-07-24T14:25:55.999Z,97274.22
2023-07-24T14:28:22.649Z,97266.19
2023-07-24T14:30:49.456Z,97250.56
2023-07-24T14:33:16.116Z,97233.47
2023-07-24T14:35:43.235Z,97228.34
2023-07-24T14:38:10.057Z,97226.72
2023-07-24T14:40:36.755Z,97228.34
2023-07-24T14:43:06.493Z,97215.19
2023-07-24T14:45:34.532Z,97210.53
2023-07-24T14:48:01.434Z,97196.88
2023-07-24T14:50:28.391Z,97201.69
2023-07-24T14:52:55.056Z,97203.81
2023-07-24T14:55:21.824Z,97188.03
2023-07-24T14:57:49.083Z,97180.91
2023-07-24T15:00:17.512Z,97172.97
2023-07-24T15:02:44.754Z,97176.72
2023-07-24T15:05:11.572Z,97182.72
2023-07-24T15:07:38.944Z,97191.59
2023-07-24T15:10:06.373Z,97190.41
2023-07-24T15:12:33.020Z,97193.75
2023-07-24T15:14:59.737Z,97205.50
2023-07-24T15:17:26.519Z,97209.06
2023-07-24T15:19:53.144Z,97203.94
2023-07-24T15:22:20.109Z,97209.09
2023-07-24T15:24:48.026Z,97198.03
2023-07-24T15:27:14.705Z,97197.22
2023-07-24T15:29:41.547Z,97201.94
2023-07-24T15:32:08.841Z,97200.13
2023-07-24T15:34:38.238Z,97200.56
2023-07-24T15:37:06.439Z,97210.22
2023-07-24T15:39:33.103Z,97213.31
2023-07-24T15:41:59.742Z,97228.09
2023-07-24T15:44:26.377Z,97233.03
2023-07-24T15:46:53.268Z,97228.56
2023-07-24T15:49:20.124Z,97233.69
2023-07-24T15:51:46.963Z,97229.78
2023-07-24T15:54:13.678Z,97228.59
2023-07-24T15:56:40.543Z,97231.66
2023-07-24T15:59:07.663Z,97223.03
2023-07-24T16:01:34.878Z,97213.78
2023-07-24T16:04:02.081Z,97204.38
2023-07-24T16:06:29.317Z,97196.78
2023-07-24T16:08:55.971Z,97207.88
2023-07-24T16:11:22.790Z,97194.94
2023-07-24T16:13:49.449Z,97198.84
2023-07-24T16:16:16.177Z,97205.19
2023-07-24T16:18:43.041Z,97199.28
2023-07-24T16:21:09.739Z,97197.41
2023-07-24T16:23:36.773Z,97197.41
2023-07-24T16:26:03.716Z,97183.50
2023-07-24T16:28:30.484Z,97172.00
2023-07-24T16:30:58.791Z,97170.34
2023-07-24T16:33:26.005Z,97159.69
2023-07-24T16:35:53.156Z,97155.59
2023-07-24T16:38:20.141Z,97156.41
2023-07-24T16:40:46.855Z,97160.91
2023-07-24T16:43:13.541Z,97161.97
2023-07-24T16:45:40.209Z,97144.09
2023-07-24T16:48:07.523Z,97142.47
2023-07-24T16:50:36.619Z,97140.22
2023-07-24T16:53:04.741Z,97132.22
2023-07-24T16:55:31.535Z,97135.31
2023-07-24T16:57:58.695Z,97140.81
2023-07-24T17:00:25.341Z,97133.88
2023-07-24T17:02:52.166Z,97130.59
2023-07-24T17:05:19.226Z,97125.47
2023-07-24T17:07:46.172Z,97137.16
2023-07-24T17:10:12.898Z,97133.69
2023-07-24T17:12:39.607Z,97139.22
2023-07-24T17:15:07.066Z,97138.81
2023-07-24T17:17:33.986Z,97131.84
2023-07-24T17:20:01.016Z,97125.06
2023-07-24T17:22:27.879Z,97122.81
2023-07-24T17:24:54.567Z,97121.16
2023-07-24T17:27:21.772Z,97113.38
2023-07-24T17:29:49.194Z,97113.59
2023-07-24T17:32:19.722Z,97112.78
2023-07-24T17:34:46.412Z,97110.53
2023-07-24T17:37:21.209Z,97116.25
2023-07-24T17:39:55.489Z,97120.78
2023-07-24T17:42:22.247Z,97119.13
2023-07-24T17:44:49.020Z,97129.97
2023-07-24T17:47:15.755Z,97125.91
2023-07-24T17:49:47.636Z,97127.13
2023-07-24T17:52:25.183Z,97128.16
2023-07-24T17:54:51.770Z,97137.19
2023-07-24T17:57:18.370Z,97142.88
2023-07-24T17:59:45.363Z,97133.47
2023-07-24T18:02:12.262Z,97124.88
2023-07-24T18:04:39.404Z,97111.97
2023-07-24T18:07:06.344Z,97104.19
2023-07-24T18:09:32.997Z,97102.72
2023-07-24T18:11:59.896Z,97106.03
2023-07-24T18:14:26.667Z,97106.84
2023-07-24T18:16:53.486Z,97103.56
2023-07-24T18:19:20.110Z,97108.06
2023-07-24T18:21:46.760Z,97132.22
2023-07-24T18:24:13.839Z,97135.94
2023-07-24T18:26:40.637Z,97144.13
2023-07-24T18:29:07.336Z,97142.69
2023-07-24T18:31:34.268Z,97142.06
2023-07-24T18:34:01.212Z,97149.84
2023-07-24T18:36:27.891Z,97150.03
2023-07-24T18:38:54.760Z,97140.59
2023-07-24T18:41:21.503Z,97143.66
2023-07-24T18:43:48.207Z,97152.06
2023-07-24T18:46:14.950Z,97151.03
2023-07-24T18:48:41.681Z,97144.44
2023-07-24T18:51:09.666Z,97136.09
2023-07-24T18:53:36.300Z,97148.56
2023-07-24T18:56:03.071Z,97138.31
2023-07-24T18:58:29.830Z,97128.06
2023-07-24T19:00:56.665Z,97126.00
2023-07-24T19:03:23.556Z,97132.34
2023-07-24T19:05:50.244Z,97134.19
2023-07-24T19:08:16.928Z,97131.31
2023-07-24T19:10:43.730Z,97135.63
2023-07-24T19:13:11.159Z,97135.00
2023-07-24T19:15:37.833Z,97128.44
2023-07-24T19:18:04.562Z,97125.16
2023-07-24T19:20:33.611Z,97121.88
2023-07-24T19:23:00.997Z,97114.69
2023-07-24T19:25:29.197Z,97113.47
2023-07-24T19:27:55.929Z,97116.53
2023-07-24T19:30:22.850Z,97115.72
2023-07-24T19:32:49.629Z,97134.53
2023-07-24T19:35:16.732Z,97141.06
2023-07-24T19:37:43.445Z,97145.59
2023-07-24T19:40:10.438Z,97145.97
2023-07-24T19:42:37.258Z,97142.91
2023-07-24T19:45:04.463Z,97152.25
2023-07-24T19:47:31.289Z,97144.28
2023-07-24T19:49:58.045Z,97146.50
2023-07-24T19:52:24.749Z,97152.44
2023-07-24T19:54:52.560Z,97150.16
2023-07-24T19:57:19.825Z,97157.13
2023-07-24T19:59:46.650Z,97162.84
2023-07-24T20:02:14.570Z,97148.50
2023-07-24T20:04:41.356Z,97149.72
2023-07-24T20:07:08.237Z,97138.84
2023-07-24T20:09:35.382Z,97128.59
2023-07-24T20:12:02.520Z,97132.84
2023-07-24T20:14:29.485Z,97157.38
2023-07-24T20:16:56.146Z,97167.81
2023-07-24T20:19:22.842Z,97158.38
2023-07-24T20:21:49.835Z,97171.41
2023-07-24T20:24:16.551Z,97184.91
2023-07-24T20:26:43.204Z,97198.78
2023-07-24T20:29:09.792Z,97207.34
2023-07-24T20:31:36.657Z,97197.53
2023-07-24T20:34:03.476Z,97198.16
2023-07-24T20:36:30.149Z,97198.75
2023-07-24T20:38:56.728Z,97197.25
2023-07-24T20:41:23.388Z,97202.94
2023-07-24T20:43:50.082Z,97207.22
2023-07-24T20:46:17.437Z,97221.06
2023-07-24T20:48:44.989Z,97206.13
2023-07-24T20:51:19.219Z,97210.81
2023-07-24T20:53:45.897Z,97216.91
2023-07-24T20:56:13.081Z,97217.47
2023-07-24T20:58:42.381Z,97230.31
2023-07-24T21:01:10.357Z,97220.03
2023-07-24T21:03:37.167Z,97211.84
2023-07-24T21:06:04.125Z,97207.94
2023-07-24T21:08:31.372Z,97208.94
2023-07-24T21:10:58.085Z,97208.69
2023-07-24T21:13:24.769Z,97199.84
2023-07-24T21:15:52.163Z,97200.72
2023-07-24T21:18:19.305Z,97207.28
2023-07-24T21:20:47.134Z,97199.69
2023-07-24T21:23:14.818Z,97205.59
2023-07-24T21:25:53.216Z,97208.78
2023-07-24T21:28:20.353Z,97206.44
2023-07-24T21:30:48.652Z,97206.53
2023-07-24T21:33:16.467Z,97210.97
2023-07-24T21:35:43.257Z,97216.53
2023-07-24T21:38:11.480Z,97224.94
2023-07-24T21:40:39.904Z,97233.31
2023-07-24T21:43:06.582Z,97242.31
2023-07-24T21:45:33.250Z,97246.59
2023-07-24T21:48:02.061Z,97246.59
2023-07-24T21:50:28.845Z,97247.44
2023-07-24T21:52:55.475Z,97251.13
2023-07-24T21:55:22.197Z,97256.81
2023-07-24T21:57:48.939Z,97263.03
2023-07-24T22:00:15.892Z,97267.19
2023-07-24T22:02:42.639Z,97255.03
2023-07-24T22:05:09.525Z,97244.72
2023-07-24T22:07:36.216Z,97255.53
2023-07-24T22:10:03.014Z,97262.47
2023-07-24T22:12:30.117Z,97261.44
2023-07-24T22:14:56.753Z,97247.97
2023-07-24T22:17:27.316Z,97227.78
2023-07-24T22:19:54.094Z,97245.16
2023-07-24T22:22:20.810Z,97260.91
2023-07-24T22:24:47.531Z,97256.41
2023-07-24T22:27:14.234Z,97250.91
2023-07-24T22:29:41.144Z,97264.19
2023-07-24T22:32:08.463Z,97268.59
2023-07-24T22:34:35.737Z,97271.63
2023-07-24T22:37:02.600Z,97273.03
2023-07-24T22:39:29.260Z,97277.22
2023-07-24T22:41:56.065Z,97283.13
2023-07-24T22:44:22.962Z,97283.75
2023-07-24T22:46:49.911Z,97284.47
2023-07-24T22:49:16.579Z,97275.31
2023-07-24T22:51:43.286Z,97288.63
2023-07-24T22:54:09.985Z,97296.28
2023-07-24T22:56:37.551Z,97296.13
2023-07-24T22:59:04.480Z,97281.47
2023-07-24T23:01:32.877Z,97287.66
2023-07-24T23:03:59.804Z,97296.94
2023-07-24T23:06:26.515Z,97283.06
2023-07-24T23:08:55.338Z,97298.03
2023-07-24T23:11:21.982Z,97300.66
2023-07-24T23:13:48.589Z,97303.16
2023-07-24T23:16:15.279Z,97306.16
2023-07-24T23:18:42.555Z,97308.81
2023-07-24T23:21:09.523Z,97320.94
2023-07-24T23:23:36.443Z,97309.03
2023-07-24T23:26:04.036Z,97321.25
2023-07-24T23:28:30.815Z,97313.38
2023-07-24T23:30:57.707Z,97312.72
2023-07-24T23:33:24.447Z,97302.00
2023-07-24T23:35:52.386Z,97309.09
2023-07-24T23:38:19.132Z,97299.34
2023-07-24T23:40:45.891Z,97287.66
2023-07-24T23:43:12.976Z,97293.25
2023-07-24T23:45:39.897Z,97294.63
2023-07-24T23:48:06.831Z,97306.88
2023-07-24T23:50:38.361Z,97303.25
2023-07-24T23:53:07.621Z,97302.91
2023-07-24T23:55:34.757Z,97307.84
2023-07-24T23:58:01.462Z,97309.16
